sensor_id;sensor_type;location;lat;lon;timestamp;temperature;humidity
13998;DHT22;7074;51.508;7.018;2023-05-10T00:01:53;16.10;99.90
13998;DHT22;7074;51.508;7.018;2023-05-10T00:04:20;16.10;99.90
13998;DHT22;7074;51.508;7.018;2023-05-10T00:06:48;16.10;99.90
13998;DHT22;7074;51.508;7.018;2023-05-10T00:09:15;16.10;99.90
13998;DHT22;7074;51.508;7.018;2023-05-10T00:11:42;16.10;99.90
13998;DHT22;7074;51.508;7.018;2023-05-10T00:14:10;16.00;99.90
13998;DHT22;7074;51.508;7.018;2023-05-10T00:16:38;16.00;99.90
13998;DHT22;7074;51.508;7.018;2023-05-10T00:19:06;16.10;99.90
13998;DHT22;7074;51.508;7.018;2023-05-10T00:21:34;16.10;99.90
13998;DHT22;7074;51.508;7.018;2023-05-10T00:24:01;16.20;99.90
13998;DHT22;7074;51.508;7.018;2023-05-10T00:26:28;16.20;99.90
13998;DHT22;7074;51.508;7.018;2023-05-10T00:28:56;16.20;99.90
13998;DHT22;7074;51.508;7.018;2023-05-10T00:31:24;16.20;99.90
13998;DHT22;7074;51.508;7.018;2023-05-10T00:33:51;16.20;99.90
13998;DHT22;7074;51.508;7.018;2023-05-10T00:36:20;16.20;99.90
13998;DHT22;7074;51.508;7.018;2023-05-10T00:38:47;16.20;99.90
13998;DHT22;7074;51.508;7.018;2023-05-10T00:41:15;16.10;99.90
13998;DHT22;7074;51.508;7.018;2023-05-10T00:43:43;16.00;99.90
13998;DHT22;7074;51.508;7.018;2023-05-10T00:46:10;16.00;99.90
13998;DHT22;7074;51.508;7.018;2023-05-10T00:48:38;16.00;99.90
13998;DHT22;7074;51.508;7.018;2023-05-10T00:51:05;15.90;99.90
13998;DHT22;7074;51.508;7.018;2023-05-10T00:53:34;15.90;99.90
13998;DHT22;7074;51.508;7.018;2023-05-10T00:56:02;15.90;99.90
13998;DHT22;7074;51.508;7.018;2023-05-10T00:58:29;15.80;99.90
13998;DHT22;7074;51.508;7.018;2023-05-10T01:00:57;15.80;99.90
13998;DHT22;7074;51.508;7.018;2023-05-10T01:03:25;15.80;99.90
13998;DHT22;7074;51.508;7.018;2023-05-10T01:05:52;15.80;99.90
13998;DHT22;7074;51.508;7.018;2023-05-10T01:08:21;15.80;99.90
13998;DHT22;7074;51.508;7.018;2023-05-10T01:10:50;15.80;99.90
13998;DHT22;7074;51.508;7.018;2023-05-10T01:13:27;15.80;99.90
13998;DHT22;7074;51.508;7.018;2023-05-10T01:15:56;15.70;99.90
13998;DHT22;7074;51.508;7.018;2023-05-10T01:18:24;15.80;99.90
13998;DHT22;7074;51.508;7.018;2023-05-10T01:21:12;15.70;99.90
13998;DHT22;7074;51.508;7.018;2023-05-10T01:27:02;15.70;99.90
13998;DHT22;7074;51.508;7.018;2023-05-10T01:30:05;15.60;99.90
13998;DHT22;7074;51.508;7.018;2023-05-10T01:32:43;15.60;99.90
13998;DHT22;7074;51.508;7.018;2023-05-10T01:35:14;15.60;99.90
13998;DHT22;7074;51.508;7.018;2023-05-10T01:37:48;15.60;99.90
13998;DHT22;7074;51.508;7.018;2023-05-10T01:40:21;15.60;99.90
13998;DHT22;7074;51.508;7.018;2023-05-10T01:42:53;15.60;99.90
13998;DHT22;7074;51.508;7.018;2023-05-10T01:45:27;15.60;99.90
13998;DHT22;7074;51.508;7.018;2023-05-10T01:48:05;15.60;99.90
13998;DHT22;7074;51.508;7.018;2023-05-10T01:50:35;15.60;99.90
13998;DHT22;7074;51.508;7.018;2023-05-10T01:53:07;15.60;99.90
13998;DHT22;7074;51.508;7.018;2023-05-10T01:55:38;15.70;99.90
13998;DHT22;7074;51.508;7.018;2023-05-10T01:58:08;15.70;99.90
13998;DHT22;7074;51.508;7.018;2023-05-10T02:00:40;15.70;99.90
13998;DHT22;7074;51.508;7.018;2023-05-10T02:03:12;15.70;99.90
13998;DHT22;7074;51.508;7.018;2023-05-10T02:05:41;15.80;99.90
13998;DHT22;7074;51.508;7.018;2023-05-10T02:08:10;15.80;99.90
13998;DHT22;7074;51.508;7.018;2023-05-10T02:10:39;15.80;99.90
13998;DHT22;7074;51.508;7.018;2023-05-10T02:13:07;15.80;99.90
13998;DHT22;7074;51.508;7.018;2023-05-10T02:15:36;15.80;99.90
13998;DHT22;7074;51.508;7.018;2023-05-10T02:18:05;15.70;99.90
13998;DHT22;7074;51.508;7.018;2023-05-10T02:20:35;15.70;99.90
13998;DHT22;7074;51.508;7.018;2023-05-10T02:23:03;15.70;99.90
13998;DHT22;7074;51.508;7.018;2023-05-10T02:25:31;15.80;99.90
13998;DHT22;7074;51.508;7.018;2023-05-10T02:28:02;15.70;99.90
13998;DHT22;7074;51.508;7.018;2023-05-10T02:30:31;15.70;99.90
13998;DHT22;7074;51.508;7.018;2023-05-10T02:32:59;15.70;99.90
13998;DHT22;7074;51.508;7.018;2023-05-10T02:35:28;15.70;99.90
13998;DHT22;7074;51.508;7.018;2023-05-10T02:37:58;15.70;99.90
13998;DHT22;7074;51.508;7.018;2023-05-10T02:40:26;15.70;99.90
13998;DHT22;7074;51.508;7.018;2023-05-10T02:42:56;15.70;99.90
13998;DHT22;7074;51.508;7.018;2023-05-10T02:45:27;15.70;99.90
13998;DHT22;7074;51.508;7.018;2023-05-10T02:47:56;15.80;99.90
13998;DHT22;7074;51.508;7.018;2023-05-10T02:50:27;15.80;99.90
13998;DHT22;7074;51.508;7.018;2023-05-10T02:52:59;15.80;99.90
13998;DHT22;7074;51.508;7.018;2023-05-10T02:55:32;15.80;99.90
13998;DHT22;7074;51.508;7.018;2023-05-10T02:58:01;15.80;99.90
13998;DHT22;7074;51.508;7.018;2023-05-10T03:00:28;15.80;99.90
13998;DHT22;7074;51.508;7.018;2023-05-10T03:02:56;15.80;99.90
13998;DHT22;7074;51.508;7.018;2023-05-10T03:05:24;15.80;99.90
13998;DHT22;7074;51.508;7.018;2023-05-10T03:07:52;15.90;99.90
13998;DHT22;7074;51.508;7.018;2023-05-10T03:10:26;15.80;99.90
13998;DHT22;7074;51.508;7.018;2023-05-10T03:13:07;15.80;99.90
13998;DHT22;7074;51.508;7.018;2023-05-10T03:15:47;15.80;99.90
13998;DHT22;7074;51.508;7.018;2023-05-10T03:18:21;15.90;99.90
13998;DHT22;7074;51.508;7.018;2023-05-10T03:20:51;15.80;99.90
13998;DHT22;7074;51.508;7.018;2023-05-10T03:23:24;15.80;99.90
13998;DHT22;7074;51.508;7.018;2023-05-10T03:25:55;15.80;99.90
13998;DHT22;7074;51.508;7.018;2023-05-10T03:28:25;15.70;99.90
13998;DHT22;7074;51.508;7.018;2023-05-10T03:30:53;15.70;99.90
13998;DHT22;7074;51.508;7.018;2023-05-10T03:33:22;15.70;99.90
13998;DHT22;7074;51.508;7.018;2023-05-10T03:35:49;15.70;99.90
13998;DHT22;7074;51.508;7.018;2023-05-10T03:38:17;15.80;99.90
13998;DHT22;7074;51.508;7.018;2023-05-10T03:40:44;15.80;99.90
13998;DHT22;7074;51.508;7.018;2023-05-10T03:43:13;15.70;99.90
13998;DHT22;7074;51.508;7.018;2023-05-10T03:45:41;15.80;99.90
13998;DHT22;7074;51.508;7.018;2023-05-10T03:48:08;15.80;99.90
13998;DHT22;7074;51.508;7.018;2023-05-10T03:50:35;15.80;99.90
13998;DHT22;7074;51.508;7.018;2023-05-10T03:53:03;15.80;99.90
13998;DHT22;7074;51.508;7.018;2023-05-10T03:55:32;15.80;99.90
13998;DHT22;7074;51.508;7.018;2023-05-10T03:58:01;15.80;99.90
13998;DHT22;7074;51.508;7.018;2023-05-10T04:00:30;15.80;99.90
13998;DHT22;7074;51.508;7.018;2023-05-10T04:02:59;15.80;99.90
13998;DHT22;7074;51.508;7.018;2023-05-10T04:05:26;15.80;99.90
13998;DHT22;7074;51.508;7.018;2023-05-10T04:07:53;15.70;99.90
13998;DHT22;7074;51.508;7.018;2023-05-10T04:10:21;15.70;99.90
13998;DHT22;7074;51.508;7.018;2023-05-10T04:12:48;15.60;99.90
13998;DHT22;7074;51.508;7.018;2023-05-10T04:15:15;15.70;99.90
13998;DHT22;7074;51.508;7.018;2023-05-10T04:17:44;15.70;99.90
13998;DHT22;7074;51.508;7.018;2023-05-10T04:20:12;15.70;99.90
13998;DHT22;7074;51.508;7.018;2023-05-10T04:22:41;15.80;99.90
13998;DHT22;7074;51.508;7.018;2023-05-10T04:25:09;15.80;99.90
13998;DHT22;7074;51.508;7.018;2023-05-10T04:27:37;15.70;99.90
13998;DHT22;7074;51.508;7.018;2023-05-10T04:30:06;15.70;99.90
13998;DHT22;7074;51.508;7.018;2023-05-10T04:32:33;15.70;99.90
13998;DHT22;7074;51.508;7.018;2023-05-10T04:35:02;15.70;99.90
13998;DHT22;7074;51.508;7.018;2023-05-10T04:37:30;15.70;99.90
13998;DHT22;7074;51.508;7.018;2023-05-10T04:39:57;15.60;99.90
13998;DHT22;7074;51.508;7.018;2023-05-10T04:42:25;15.60;99.90
13998;DHT22;7074;51.508;7.018;2023-05-10T04:44:52;15.60;99.90
13998;DHT22;7074;51.508;7.018;2023-05-10T04:47:20;15.50;99.90
13998;DHT22;7074;51.508;7.018;2023-05-10T04:49:47;15.60;99.90
13998;DHT22;7074;51.508;7.018;2023-05-10T04:52:16;15.60;99.90
13998;DHT22;7074;51.508;7.018;2023-05-10T04:54:43;15.60;99.90
13998;DHT22;7074;51.508;7.018;2023-05-10T04:57:10;15.60;99.90
13998;DHT22;7074;51.508;7.018;2023-05-10T04:59:38;15.60;99.90
13998;DHT22;7074;51.508;7.018;2023-05-10T05:02:05;15.60;99.90
13998;DHT22;7074;51.508;7.018;2023-05-10T05:04:32;15.60;99.90
13998;DHT22;7074;51.508;7.018;2023-05-10T05:07:00;15.60;99.90
13998;DHT22;7074;51.508;7.018;2023-05-10T05:09:28;15.60;99.90
13998;DHT22;7074;51.508;7.018;2023-05-10T05:11:57;15.60;99.90
13998;DHT22;7074;51.508;7.018;2023-05-10T05:14:25;15.70;99.90
13998;DHT22;7074;51.508;7.018;2023-05-10T05:16:55;15.70;99.90
13998;DHT22;7074;51.508;7.018;2023-05-10T05:19:23;15.70;99.90
13998;DHT22;7074;51.508;7.018;2023-05-10T05:21:50;15.70;99.90
13998;DHT22;7074;51.508;7.018;2023-05-10T05:24:17;15.60;99.90
13998;DHT22;7074;51.508;7.018;2023-05-10T05:26:46;15.60;99.90
13998;DHT22;7074;51.508;7.018;2023-05-10T05:29:13;15.70;99.90
13998;DHT22;7074;51.508;7.018;2023-05-10T05:31:40;15.70;99.90
13998;DHT22;7074;51.508;7.018;2023-05-10T05:34:07;15.70;99.90
13998;DHT22;7074;51.508;7.018;2023-05-10T05:36:36;15.80;99.90
13998;DHT22;7074;51.508;7.018;2023-05-10T05:39:04;15.90;99.90
13998;DHT22;7074;51.508;7.018;2023-05-10T05:41:31;15.90;99.90
13998;DHT22;7074;51.508;7.018;2023-05-10T05:44:00;15.90;99.90
13998;DHT22;7074;51.508;7.018;2023-05-10T05:46:27;15.90;99.90
13998;DHT22;7074;51.508;7.018;2023-05-10T05:48:54;15.90;99.90
13998;DHT22;7074;51.508;7.018;2023-05-10T05:51:22;15.90;99.90
13998;DHT22;7074;51.508;7.018;2023-05-10T05:53:49;15.90;99.90
13998;DHT22;7074;51.508;7.018;2023-05-10T05:56:16;15.90;99.90
13998;DHT22;7074;51.508;7.018;2023-05-10T05:58:49;15.90;99.90
13998;DHT22;7074;51.508;7.018;2023-05-10T06:01:18;15.90;99.90
13998;DHT22;7074;51.508;7.018;2023-05-10T06:03:45;15.90;99.90
13998;DHT22;7074;51.508;7.018;2023-05-10T06:06:12;15.90;99.90
13998;DHT22;7074;51.508;7.018;2023-05-10T06:08:39;15.90;99.90
13998;DHT22;7074;51.508;7.018;2023-05-10T06:11:07;15.80;99.90
13998;DHT22;7074;51.508;7.018;2023-05-10T06:13:34;15.90;99.90
13998;DHT22;7074;51.508;7.018;2023-05-10T06:16:02;15.90;99.90
13998;DHT22;7074;51.508;7.018;2023-05-10T06:18:30;16.00;99.90
13998;DHT22;7074;51.508;7.018;2023-05-10T06:20:58;16.10;99.90
13998;DHT22;7074;51.508;7.018;2023-05-10T06:23:25;16.10;99.90
13998;DHT22;7074;51.508;7.018;2023-05-10T06:25:53;16.10;99.90
13998;DHT22;7074;51.508;7.018;2023-05-10T06:28:20;16.20;99.90
13998;DHT22;7074;51.508;7.018;2023-05-10T06:30:47;16.10;99.90
13998;DHT22;7074;51.508;7.018;2023-05-10T06:33:14;16.20;99.90
13998;DHT22;7074;51.508;7.018;2023-05-10T06:35:43;16.20;99.90
13998;DHT22;7074;51.508;7.018;2023-05-10T06:38:11;16.30;99.90
13998;DHT22;7074;51.508;7.018;2023-05-10T06:40:41;16.40;99.90
13998;DHT22;7074;51.508;7.018;2023-05-10T06:43:08;16.50;99.90
13998;DHT22;7074;51.508;7.018;2023-05-10T06:45:36;16.50;99.90
13998;DHT22;7074;51.508;7.018;2023-05-10T06:48:03;16.50;99.90
13998;DHT22;7074;51.508;7.018;2023-05-10T06:50:30;16.50;99.90
13998;DHT22;7074;51.508;7.018;2023-05-10T06:52:59;16.30;99.90
13998;DHT22;7074;51.508;7.018;2023-05-10T06:55:27;16.50;99.90
13998;DHT22;7074;51.508;7.018;2023-05-10T06:57:54;16.40;99.90
13998;DHT22;7074;51.508;7.018;2023-05-10T07:00:22;16.50;99.90
13998;DHT22;7074;51.508;7.018;2023-05-10T07:02:49;16.70;99.90
13998;DHT22;7074;51.508;7.018;2023-05-10T07:05:16;16.70;99.90
13998;DHT22;7074;51.508;7.018;2023-05-10T07:07:44;16.90;99.90
13998;DHT22;7074;51.508;7.018;2023-05-10T07:10:12;16.90;99.90
13998;DHT22;7074;51.508;7.018;2023-05-10T07:12:40;17.00;99.90
13998;DHT22;7074;51.508;7.018;2023-05-10T07:15:08;17.00;99.90
13998;DHT22;7074;51.508;7.018;2023-05-10T07:17:36;17.10;99.90
13998;DHT22;7074;51.508;7.018;2023-05-10T07:20:04;17.10;99.90
13998;DHT22;7074;51.508;7.018;2023-05-10T07:22:31;17.10;99.90
13998;DHT22;7074;51.508;7.018;2023-05-10T07:24:59;17.00;99.90
13998;DHT22;7074;51.508;7.018;2023-05-10T07:27:27;16.90;99.90
13998;DHT22;7074;51.508;7.018;2023-05-10T07:29:55;16.90;99.90
13998;DHT22;7074;51.508;7.018;2023-05-10T07:32:22;17.00;99.90
13998;DHT22;7074;51.508;7.018;2023-05-10T07:34:49;17.00;99.90
13998;DHT22;7074;51.508;7.018;2023-05-10T07:37:16;17.00;99.90
13998;DHT22;7074;51.508;7.018;2023-05-10T07:39:43;16.90;99.90
13998;DHT22;7074;51.508;7.018;2023-05-10T07:42:10;16.90;99.90
13998;DHT22;7074;51.508;7.018;2023-05-10T07:44:39;16.90;99.90
13998;DHT22;7074;51.508;7.018;2023-05-10T07:47:06;16.80;99.90
13998;DHT22;7074;51.508;7.018;2023-05-10T07:49:33;16.90;99.90
13998;DHT22;7074;51.508;7.018;2023-05-10T07:52:03;17.00;99.90
13998;DHT22;7074;51.508;7.018;2023-05-10T07:54:30;17.10;99.90
13998;DHT22;7074;51.508;7.018;2023-05-10T07:56:57;17.10;99.90
13998;DHT22;7074;51.508;7.018;2023-05-10T07:59:25;17.10;99.90
13998;DHT22;7074;51.508;7.018;2023-05-10T08:01:54;17.10;99.90
13998;DHT22;7074;51.508;7.018;2023-05-10T08:04:22;17.10;99.90
13998;DHT22;7074;51.508;7.018;2023-05-10T08:06:49;17.20;99.90
13998;DHT22;7074;51.508;7.018;2023-05-10T08:09:17;17.20;99.90
13998;DHT22;7074;51.508;7.018;2023-05-10T08:11:49;17.20;99.90
13998;DHT22;7074;51.508;7.018;2023-05-10T08:14:16;17.20;99.90
13998;DHT22;7074;51.508;7.018;2023-05-10T08:16:43;17.30;99.90
13998;DHT22;7074;51.508;7.018;2023-05-10T08:19:12;17.20;99.90
13998;DHT22;7074;51.508;7.018;2023-05-10T08:21:39;17.30;99.90
13998;DHT22;7074;51.508;7.018;2023-05-10T08:24:08;17.40;99.90
13998;DHT22;7074;51.508;7.018;2023-05-10T08:26:35;17.40;99.90
13998;DHT22;7074;51.508;7.018;2023-05-10T08:29:02;17.40;99.90
13998;DHT22;7074;51.508;7.018;2023-05-10T08:31:30;17.40;99.90
13998;DHT22;7074;51.508;7.018;2023-05-10T08:33:57;17.50;99.90
13998;DHT22;7074;51.508;7.018;2023-05-10T08:36:25;17.40;99.90
13998;DHT22;7074;51.508;7.018;2023-05-10T08:38:53;17.40;99.90
13998;DHT22;7074;51.508;7.018;2023-05-10T08:41:21;17.40;99.90
13998;DHT22;7074;51.508;7.018;2023-05-10T08:43:50;17.40;99.90
13998;DHT22;7074;51.508;7.018;2023-05-10T08:46:19;17.50;99.90
13998;DHT22;7074;51.508;7.018;2023-05-10T08:48:47;17.60;99.90
13998;DHT22;7074;51.508;7.018;2023-05-10T08:51:18;17.60;99.90
13998;DHT22;7074;51.508;7.018;2023-05-10T08:53:47;17.70;99.90
13998;DHT22;7074;51.508;7.018;2023-05-10T08:56:15;17.70;99.90
13998;DHT22;7074;51.508;7.018;2023-05-10T08:58:45;17.90;99.90
13998;DHT22;7074;51.508;7.018;2023-05-10T09:01:13;17.90;99.90
13998;DHT22;7074;51.508;7.018;2023-05-10T09:03:42;17.90;99.90
13998;DHT22;7074;51.508;7.018;2023-05-10T09:06:12;18.00;99.90
13998;DHT22;7074;51.508;7.018;2023-05-10T09:08:40;18.10;99.90
13998;DHT22;7074;51.508;7.018;2023-05-10T09:11:11;18.40;99.90
13998;DHT22;7074;51.508;7.018;2023-05-10T09:13:38;18.40;99.90
13998;DHT22;7074;51.508;7.018;2023-05-10T09:16:06;18.60;99.90
13998;DHT22;7074;51.508;7.018;2023-05-10T09:18:33;18.90;99.90
13998;DHT22;7074;51.508;7.018;2023-05-10T09:21:01;19.10;99.90
13998;DHT22;7074;51.508;7.018;2023-05-10T09:23:28;19.20;99.90
13998;DHT22;7074;51.508;7.018;2023-05-10T09:26:04;19.20;99.90
13998;DHT22;7074;51.508;7.018;2023-05-10T09:28:34;19.10;99.90
13998;DHT22;7074;51.508;7.018;2023-05-10T09:31:01;19.00;99.90
13998;DHT22;7074;51.508;7.018;2023-05-10T09:33:28;19.00;99.90
13998;DHT22;7074;51.508;7.018;2023-05-10T09:35:55;19.00;99.90
13998;DHT22;7074;51.508;7.018;2023-05-10T09:38:45;19.00;99.90
13998;DHT22;7074;51.508;7.018;2023-05-10T09:41:16;18.90;99.90
13998;DHT22;7074;51.508;7.018;2023-05-10T09:43:45;18.90;99.90
13998;DHT22;7074;51.508;7.018;2023-05-10T09:46:12;18.80;99.90
13998;DHT22;7074;51.508;7.018;2023-05-10T09:48:42;18.80;99.90
13998;DHT22;7074;51.508;7.018;2023-05-10T09:51:09;18.70;99.90
13998;DHT22;7074;51.508;7.018;2023-05-10T09:53:37;18.60;99.90
13998;DHT22;7074;51.508;7.018;2023-05-10T09:56:04;18.40;99.90
13998;DHT22;7074;51.508;7.018;2023-05-10T09:58:32;18.40;99.90
13998;DHT22;7074;51.508;7.018;2023-05-10T10:01:10;18.40;99.90
13998;DHT22;7074;51.508;7.018;2023-05-10T10:03:42;18.30;99.90
13998;DHT22;7074;51.508;7.018;2023-05-10T10:06:09;18.20;99.90
13998;DHT22;7074;51.508;7.018;2023-05-10T10:08:36;18.30;99.90
13998;DHT22;7074;51.508;7.018;2023-05-10T10:11:04;18.30;99.90
13998;DHT22;7074;51.508;7.018;2023-05-10T10:13:31;18.30;99.90
13998;DHT22;7074;51.508;7.018;2023-05-10T10:16:02;18.40;99.90
13998;DHT22;7074;51.508;7.018;2023-05-10T10:18:31;18.30;99.90
13998;DHT22;7074;51.508;7.018;2023-05-10T10:20:59;18.10;99.90
13998;DHT22;7074;51.508;7.018;2023-05-10T10:23:27;18.20;99.90
13998;DHT22;7074;51.508;7.018;2023-05-10T10:25:54;18.10;99.90
13998;DHT22;7074;51.508;7.018;2023-05-10T10:28:30;18.10;99.90
13998;DHT22;7074;51.508;7.018;2023-05-10T10:31:11;18.20;99.90
13998;DHT22;7074;51.508;7.018;2023-05-10T10:33:55;18.00;99.90
13998;DHT22;7074;51.508;7.018;2023-05-10T10:36:23;18.30;99.90
13998;DHT22;7074;51.508;7.018;2023-05-10T10:38:59;18.30;99.90
13998;DHT22;7074;51.508;7.018;2023-05-10T10:41:29;18.40;99.90
13998;DHT22;7074;51.508;7.018;2023-05-10T10:44:33;18.40;99.90
13998;DHT22;7074;51.508;7.018;2023-05-10T10:47:02;18.40;99.90
13998;DHT22;7074;51.508;7.018;2023-05-10T10:49:43;18.30;99.90
13998;DHT22;7074;51.508;7.018;2023-05-10T10:52:15;18.20;99.90
13998;DHT22;7074;51.508;7.018;2023-05-10T10:54:49;18.10;99.90
13998;DHT22;7074;51.508;7.018;2023-05-10T10:57:18;18.10;99.90
13998;DHT22;7074;51.508;7.018;2023-05-10T10:59:47;17.90;99.90
13998;DHT22;7074;51.508;7.018;2023-05-10T11:02:34;17.80;99.90
13998;DHT22;7074;51.508;7.018;2023-05-10T11:05:34;17.70;99.90
13998;DHT22;7074;51.508;7.018;2023-05-10T11:08:11;17.60;99.90
13998;DHT22;7074;51.508;7.018;2023-05-10T11:10:40;17.50;99.90
13998;DHT22;7074;51.508;7.018;2023-05-10T11:13:08;17.60;99.90
13998;DHT22;7074;51.508;7.018;2023-05-10T11:15:36;17.60;99.90
13998;DHT22;7074;51.508;7.018;2023-05-10T11:18:25;17.70;99.90
13998;DHT22;7074;51.508;7.018;2023-05-10T11:20:57;17.80;99.90
13998;DHT22;7074;51.508;7.018;2023-05-10T11:23:30;17.70;99.90
13998;DHT22;7074;51.508;7.018;2023-05-10T11:25:58;17.80;99.90
13998;DHT22;7074;51.508;7.018;2023-05-10T11:28:26;17.80;99.90
13998;DHT22;7074;51.508;7.018;2023-05-10T11:30:54;17.80;99.90
13998;DHT22;7074;51.508;7.018;2023-05-10T11:33:22;17.90;99.90
13998;DHT22;7074;51.508;7.018;2023-05-10T11:35:49;17.90;99.90
13998;DHT22;7074;51.508;7.018;2023-05-10T11:38:18;17.80;99.90
13998;DHT22;7074;51.508;7.018;2023-05-10T11:40:45;17.80;99.90
13998;DHT22;7074;51.508;7.018;2023-05-10T11:43:12;17.90;99.90
13998;DHT22;7074;51.508;7.018;2023-05-10T11:45:41;17.80;99.90
13998;DHT22;7074;51.508;7.018;2023-05-10T11:48:08;17.70;99.90
13998;DHT22;7074;51.508;7.018;2023-05-10T11:50:35;17.70;99.90
13998;DHT22;7074;51.508;7.018;2023-05-10T11:53:02;17.80;99.90
13998;DHT22;7074;51.508;7.018;2023-05-10T11:55:33;17.70;99.90
13998;DHT22;7074;51.508;7.018;2023-05-10T11:58:01;17.80;99.90
13998;DHT22;7074;51.508;7.018;2023-05-10T12:00:29;17.80;99.90
13998;DHT22;7074;51.508;7.018;2023-05-10T12:02:57;17.80;99.90
13998;DHT22;7074;51.508;7.018;2023-05-10T12:05:25;18.00;99.90
13998;DHT22;7074;51.508;7.018;2023-05-10T12:07:52;18.10;99.90
13998;DHT22;7074;51.508;7.018;2023-05-10T12:10:25;18.00;99.90
13998;DHT22;7074;51.508;7.018;2023-05-10T12:12:56;17.90;99.90
13998;DHT22;7074;51.508;7.018;2023-05-10T12:15:24;17.90;99.90
13998;DHT22;7074;51.508;7.018;2023-05-10T12:17:53;18.00;99.90
13998;DHT22;7074;51.508;7.018;2023-05-10T12:20:22;18.00;99.90
13998;DHT22;7074;51.508;7.018;2023-05-10T12:22:51;18.00;99.90
13998;DHT22;7074;51.508;7.018;2023-05-10T12:25:19;18.00;99.90
13998;DHT22;7074;51.508;7.018;2023-05-10T12:27:55;18.00;99.90
13998;DHT22;7074;51.508;7.018;2023-05-10T12:30:23;17.90;99.90
13998;DHT22;7074;51.508;7.018;2023-05-10T12:32:51;17.90;99.90
13998;DHT22;7074;51.508;7.018;2023-05-10T12:35:19;17.80;99.90
13998;DHT22;7074;51.508;7.018;2023-05-10T12:37:47;17.90;99.90
13998;DHT22;7074;51.508;7.018;2023-05-10T12:40:15;17.90;99.90
13998;DHT22;7074;51.508;7.018;2023-05-10T12:42:42;18.10;99.90
13998;DHT22;7074;51.508;7.018;2023-05-10T12:45:12;18.20;99.90
13998;DHT22;7074;51.508;7.018;2023-05-10T12:47:39;18.40;99.90
13998;DHT22;7074;51.508;7.018;2023-05-10T12:50:07;18.60;99.90
13998;DHT22;7074;51.508;7.018;2023-05-10T12:52:34;18.80;99.90
13998;DHT22;7074;51.508;7.018;2023-05-10T12:55:02;19.00;99.90
13998;DHT22;7074;51.508;7.018;2023-05-10T12:57:29;19.20;99.90
13998;DHT22;7074;51.508;7.018;2023-05-10T12:59:57;19.40;99.90
13998;DHT22;7074;51.508;7.018;2023-05-10T13:02:25;19.60;99.90
13998;DHT22;7074;51.508;7.018;2023-05-10T13:04:52;19.80;99.90
13998;DHT22;7074;51.508;7.018;2023-05-10T13:07:20;19.90;99.90
13998;DHT22;7074;51.508;7.018;2023-05-10T13:09:47;19.90;99.90
13998;DHT22;7074;51.508;7.018;2023-05-10T13:12:14;19.90;99.90
13998;DHT22;7074;51.508;7.018;2023-05-10T13:14:41;19.70;99.90
13998;DHT22;7074;51.508;7.018;2023-05-10T13:17:08;19.70;99.90
13998;DHT22;7074;51.508;7.018;2023-05-10T13:19:37;19.80;99.90
13998;DHT22;7074;51.508;7.018;2023-05-10T13:22:04;19.90;99.90
13998;DHT22;7074;51.508;7.018;2023-05-10T13:24:31;19.90;99.90
13998;DHT22;7074;51.508;7.018;2023-05-10T13:26:58;19.90;99.90
13998;DHT22;7074;51.508;7.018;2023-05-10T13:29:26;20.10;99.90
13998;DHT22;7074;51.508;7.018;2023-05-10T13:31:53;20.00;99.90
13998;DHT22;7074;51.508;7.018;2023-05-10T13:34:20;20.30;99.90
13998;DHT22;7074;51.508;7.018;2023-05-10T13:36:49;20.40;99.90
13998;DHT22;7074;51.508;7.018;2023-05-10T13:39:16;20.70;99.90
13998;DHT22;7074;51.508;7.018;2023-05-10T13:41:43;21.10;99.90
13998;DHT22;7074;51.508;7.018;2023-05-10T13:44:12;21.30;99.90
13998;DHT22;7074;51.508;7.018;2023-05-10T13:46:39;21.10;99.90
13998;DHT22;7074;51.508;7.018;2023-05-10T13:49:09;21.50;99.90
13998;DHT22;7074;51.508;7.018;2023-05-10T13:51:36;21.90;99.90
13998;DHT22;7074;51.508;7.018;2023-05-10T13:54:05;21.70;99.90
13998;DHT22;7074;51.508;7.018;2023-05-10T13:56:32;21.90;99.90
13998;DHT22;7074;51.508;7.018;2023-05-10T13:58:59;22.10;99.90
13998;DHT22;7074;51.508;7.018;2023-05-10T14:01:26;22.30;99.90
13998;DHT22;7074;51.508;7.018;2023-05-10T14:03:53;22.60;99.90
13998;DHT22;7074;51.508;7.018;2023-05-10T14:06:20;22.60;99.90
13998;DHT22;7074;51.508;7.018;2023-05-10T14:08:48;22.10;99.90
13998;DHT22;7074;51.508;7.018;2023-05-10T14:11:16;22.30;99.90
13998;DHT22;7074;51.508;7.018;2023-05-10T14:13:43;22.30;99.90
13998;DHT22;7074;51.508;7.018;2023-05-10T14:16:10;22.50;99.90
13998;DHT22;7074;51.508;7.018;2023-05-10T14:18:40;22.70;99.90
13998;DHT22;7074;51.508;7.018;2023-05-10T14:21:07;22.70;99.90
13998;DHT22;7074;51.508;7.018;2023-05-10T14:23:34;22.40;99.90
13998;DHT22;7074;51.508;7.018;2023-05-10T14:26:01;22.50;99.90
13998;DHT22;7074;51.508;7.018;2023-05-10T14:28:30;22.60;99.90
13998;DHT22;7074;51.508;7.018;2023-05-10T14:30:57;22.70;99.90
13998;DHT22;7074;51.508;7.018;2023-05-10T14:33:26;22.20;99.90
13998;DHT22;7074;51.508;7.018;2023-05-10T14:35:54;22.00;99.90
13998;DHT22;7074;51.508;7.018;2023-05-10T14:38:23;22.00;99.90
13998;DHT22;7074;51.508;7.018;2023-05-10T14:40:50;21.50;99.90
13998;DHT22;7074;51.508;7.018;2023-05-10T14:43:17;21.50;99.90
13998;DHT22;7074;51.508;7.018;2023-05-10T14:45:45;21.60;99.90
13998;DHT22;7074;51.508;7.018;2023-05-10T14:48:13;21.60;99.90
13998;DHT22;7074;51.508;7.018;2023-05-10T14:50:41;21.50;99.90
13998;DHT22;7074;51.508;7.018;2023-05-10T14:53:09;21.50;99.90
13998;DHT22;7074;51.508;7.018;2023-05-10T14:55:36;21.40;99.90
13998;DHT22;7074;51.508;7.018;2023-05-10T14:58:04;21.40;99.90
13998;DHT22;7074;51.508;7.018;2023-05-10T15:00:31;21.60;99.90
13998;DHT22;7074;51.508;7.018;2023-05-10T15:02:59;21.80;99.90
13998;DHT22;7074;51.508;7.018;2023-05-10T15:05:27;21.30;99.90
13998;DHT22;7074;51.508;7.018;2023-05-10T15:07:54;21.40;99.90
13998;DHT22;7074;51.508;7.018;2023-05-10T15:10:21;21.40;99.90
13998;DHT22;7074;51.508;7.018;2023-05-10T15:12:49;21.50;99.90
13998;DHT22;7074;51.508;7.018;2023-05-10T15:15:16;21.10;99.90
13998;DHT22;7074;51.508;7.018;2023-05-10T15:17:43;21.20;99.90
13998;DHT22;7074;51.508;7.018;2023-05-10T15:20:13;21.30;99.90
13998;DHT22;7074;51.508;7.018;2023-05-10T15:22:40;21.20;99.90
13998;DHT22;7074;51.508;7.018;2023-05-10T15:25:12;21.10;99.90
13998;DHT22;7074;51.508;7.018;2023-05-10T15:27:39;21.10;99.90
13998;DHT22;7074;51.508;7.018;2023-05-10T15:30:10;21.10;99.90
13998;DHT22;7074;51.508;7.018;2023-05-10T15:32:37;21.00;99.90
13998;DHT22;7074;51.508;7.018;2023-05-10T15:35:07;20.90;99.90
13998;DHT22;7074;51.508;7.018;2023-05-10T15:37:36;20.80;99.90
13998;DHT22;7074;51.508;7.018;2023-05-10T15:40:04;20.70;99.90
13998;DHT22;7074;51.508;7.018;2023-05-10T15:42:32;20.70;99.90
13998;DHT22;7074;51.508;7.018;2023-05-10T15:44:59;20.60;99.90
13998;DHT22;7074;51.508;7.018;2023-05-10T15:47:26;20.70;99.90
13998;DHT22;7074;51.508;7.018;2023-05-10T15:49:54;20.70;99.90
13998;DHT22;7074;51.508;7.018;2023-05-10T15:52:21;20.70;99.90
13998;DHT22;7074;51.508;7.018;2023-05-10T15:54:50;20.70;99.90
13998;DHT22;7074;51.508;7.018;2023-05-10T15:57:17;20.50;99.90
13998;DHT22;7074;51.508;7.018;2023-05-10T15:59:44;20.50;99.90